sensor_id;sensor_type;location;lat;lon;timestamp;pressure;altitude;pressure_sealevel;temperature;humidity
53719;BME280;39616;48.872;9.390;2023-05-03T00:01:20;99148.16;;;7.64;100.00
53719;BME280;39616;48.872;9.390;2023-05-03T00:03:51;99152.47;;;7.65;100.00
53719;BME280;39616;48.872;9.390;2023-05-03T00:06:22;99158.94;;;7.59;100.00
53719;BME280;39616;48.872;9.390;2023-05-03T00:08:52;99155.41;;;7.59;100.00
53719;BME280;39616;48.872;9.390;2023-05-03T00:11:22;99160.53;;;7.60;100.00
53719;BME280;39616;48.872;9.390;2023-05-03T00:13:53;99166.50;;;7.62;100.00
53719;BME280;39616;48.872;9.390;2023-05-03T00:16:23;99171.56;;;7.54;100.00
53719;BME280;39616;48.872;9.390;2023-05-03T00:18:53;99168.81;;;7.48;100.00
53719;BME280;39616;48.872;9.390;2023-05-03T00:21:24;99166.94;;;7.49;100.00
53719;BME280;39616;48.872;9.390;2023-05-03T00:23:54;99160.94;;;7.47;100.00
53719;BME280;39616;48.872;9.390;2023-05-03T00:26:24;99159.84;;;7.43;100.00
53719;BME280;39616;48.872;9.390;2023-05-03T00:28:55;99160.59;;;7.38;100.00
53719;BME280;39616;48.872;9.390;2023-05-03T00:31:25;99156.00;;;7.34;100.00
53719;BME280;39616;48.872;9.390;2023-05-03T00:33:56;99153.22;;;7.29;100.00
53719;BME280;39616;48.872;9.390;2023-05-03T00:36:26;99156.69;;;7.24;100.00
53719;BME280;39616;48.872;9.390;2023-05-03T00:38:57;99155.06;;;7.23;100.00
53719;BME280;39616;48.872;9.390;2023-05-03T00:41:27;99156.06;;;7.17;100.00
53719;BME280;39616;48.872;9.390;2023-05-03T00:43:57;99152.84;;;7.15;100.00
53719;BME280;39616;48.872;9.390;2023-05-03T00:46:28;99158.22;;;7.15;100.00
53719;BME280;39616;48.872;9.390;2023-05-03T00:48:58;99145.59;;;7.20;100.00
53719;BME280;39616;48.872;9.390;2023-05-03T00:51:29;99150.22;;;7.25;100.00
53719;BME280;39616;48.872;9.390;2023-05-03T00:53:59;99144.59;;;7.26;100.00
53719;BME280;39616;48.872;9.390;2023-05-03T00:56:31;99142.13;;;7.25;100.00
53719;BME280;39616;48.872;9.390;2023-05-03T00:59:02;99140.25;;;7.25;100.00
53719;BME280;39616;48.872;9.390;2023-05-03T01:01:32;99138.38;;;7.26;100.00
53719;BME280;39616;48.872;9.390;2023-05-03T01:04:04;99138.63;;;7.24;100.00
53719;BME280;39616;48.872;9.390;2023-05-03T01:09:32;99129.47;;;7.25;100.00
53719;BME280;39616;48.872;9.390;2023-05-03T01:12:14;99140.56;;;7.29;100.00
53719;BME280;39616;48.872;9.390;2023-05-03T01:14:57;99136.22;;;7.28;100.00
53719;BME280;39616;48.872;9.390;2023-05-03T01:17:34;99143.50;;;7.28;100.00
53719;BME280;39616;48.872;9.390;2023-05-03T01:20:07;99139.19;;;7.26;100.00
53719;BME280;39616;48.872;9.390;2023-05-03T01:25:12;99135.91;;;7.24;100.00
53719;BME280;39616;48.872;9.390;2023-05-03T01:27:42;99134.88;;;7.25;100.00
53719;BME280;39616;48.872;9.390;2023-05-03T01:30:13;99124.94;;;7.31;100.00
53719;BME280;39616;48.872;9.390;2023-05-03T01:33:09;99121.97;;;7.33;100.00
53719;BME280;39616;48.872;9.390;2023-05-03T01:35:43;99119.25;;;7.33;100.00
53719;BME280;39616;48.872;9.390;2023-05-03T01:38:17;99125.94;;;7.25;100.00
53719;BME280;39616;48.872;9.390;2023-05-03T01:40:51;99120.00;;;7.23;100.00
53719;BME280;39616;48.872;9.390;2023-05-03T01:43:21;99117.81;;;7.20;100.00
53719;BME280;39616;48.872;9.390;2023-05-03T01:45:52;99120.22;;;7.21;100.00
53719;BME280;39616;48.872;9.390;2023-05-03T01:48:23;99117.31;;;7.23;100.00
53719;BME280;39616;48.872;9.390;2023-05-03T01:50:53;99107.06;;;7.25;100.00
53719;BME280;39616;48.872;9.390;2023-05-03T01:53:23;99110.34;;;7.32;100.00
53719;BME280;39616;48.872;9.390;2023-05-03T01:55:54;99107.97;;;7.36;100.00
53719;BME280;39616;48.872;9.390;2023-05-03T01:58:24;99112.03;;;7.38;100.00
53719;BME280;39616;48.872;9.390;2023-05-03T02:00:55;99105.84;;;7.38;100.00
53719;BME280;39616;48.872;9.390;2023-05-03T02:03:25;99110.47;;;7.42;100.00
53719;BME280;39616;48.872;9.390;2023-05-03T02:05:56;99106.75;;;7.48;100.00
53719;BME280;39616;48.872;9.390;2023-05-03T02:08:26;99110.22;;;7.44;100.00
53719;BME280;39616;48.872;9.390;2023-05-03T02:10:56;99111.47;;;7.36;100.00
53719;BME280;39616;48.872;9.390;2023-05-03T02:13:27;99115.44;;;7.29;100.00
53719;BME280;39616;48.872;9.390;2023-05-03T02:15:57;99114.28;;;7.19;100.00
53719;BME280;39616;48.872;9.390;2023-05-03T02:18:27;99114.75;;;7.11;100.00
53719;BME280;39616;48.872;9.390;2023-05-03T02:21:00;99112.75;;;7.01;100.00
53719;BME280;39616;48.872;9.390;2023-05-03T02:23:30;99114.84;;;6.94;100.00
53719;BME280;39616;48.872;9.390;2023-05-03T02:26:01;99120.44;;;6.88;100.00
53719;BME280;39616;48.872;9.390;2023-05-03T02:28:32;99117.41;;;6.84;100.00
53719;BME280;39616;48.872;9.390;2023-05-03T02:31:03;99119.25;;;6.78;100.00
53719;BME280;39616;48.872;9.390;2023-05-03T02:33:35;99113.56;;;6.75;100.00
53719;BME280;39616;48.872;9.390;2023-05-03T02:36:05;99115.19;;;6.76;100.00
53719;BME280;39616;48.872;9.390;2023-05-03T02:38:36;99118.94;;;6.75;100.00
53719;BME280;39616;48.872;9.390;2023-05-03T02:41:06;99120.25;;;6.72;100.00
53719;BME280;39616;48.872;9.390;2023-05-03T02:43:37;99115.69;;;6.73;100.00
53719;BME280;39616;48.872;9.390;2023-05-03T02:46:07;99125.28;;;6.64;100.00
53719;BME280;39616;48.872;9.390;2023-05-03T02:48:37;99125.19;;;6.59;100.00
53719;BME280;39616;48.872;9.390;2023-05-03T02:51:08;99118.31;;;6.46;100.00
53719;BME280;39616;48.872;9.390;2023-05-03T02:53:38;99113.38;;;6.38;100.00
53719;BME280;39616;48.872;9.390;2023-05-03T02:56:08;99109.78;;;6.32;100.00
53719;BME280;39616;48.872;9.390;2023-05-03T02:58:39;99120.31;;;6.34;100.00
53719;BME280;39616;48.872;9.390;2023-05-03T03:01:10;99117.72;;;6.22;100.00
53719;BME280;39616;48.872;9.390;2023-05-03T03:03:40;99115.72;;;6.12;100.00
53719;BME280;39616;48.872;9.390;2023-05-03T03:06:10;99114.38;;;6.15;100.00
53719;BME280;39616;48.872;9.390;2023-05-03T03:08:41;99116.69;;;6.06;100.00
53719;BME280;39616;48.872;9.390;2023-05-03T03:11:11;99114.97;;;6.00;100.00
53719;BME280;39616;48.872;9.390;2023-05-03T03:13:41;99114.56;;;5.91;100.00
53719;BME280;39616;48.872;9.390;2023-05-03T03:16:12;99119.31;;;5.84;100.00
53719;BME280;39616;48.872;9.390;2023-05-03T03:18:42;99122.16;;;5.77;100.00
53719;BME280;39616;48.872;9.390;2023-05-03T03:21:12;99121.50;;;5.70;100.00
53719;BME280;39616;48.872;9.390;2023-05-03T03:23:43;99119.34;;;5.67;100.00
53719;BME280;39616;48.872;9.390;2023-05-03T03:26:13;99122.03;;;5.67;100.00
53719;BME280;39616;48.872;9.390;2023-05-03T03:28:43;99121.59;;;5.58;100.00
53719;BME280;39616;48.872;9.390;2023-05-03T03:31:14;99122.06;;;5.55;100.00
53719;BME280;39616;48.872;9.390;2023-05-03T03:33:44;99128.44;;;5.49;100.00
53719;BME280;39616;48.872;9.390;2023-05-03T03:36:15;99125.16;;;5.47;100.00
53719;BME280;39616;48.872;9.390;2023-05-03T03:38:45;99118.41;;;5.45;100.00
53719;BME280;39616;48.872;9.390;2023-05-03T03:41:16;99128.59;;;5.43;100.00
53719;BME280;39616;48.872;9.390;2023-05-03T03:43:46;99129.75;;;5.47;100.00
53719;BME280;39616;48.872;9.390;2023-05-03T03:46:16;99139.34;;;5.43;100.00
53719;BME280;39616;48.872;9.390;2023-05-03T03:48:47;99132.25;;;5.37;100.00
53719;BME280;39616;48.872;9.390;2023-05-03T03:51:17;99133.06;;;5.37;100.00
53719;BME280;39616;48.872;9.390;2023-05-03T03:53:47;99139.66;;;5.29;100.00
53719;BME280;39616;48.872;9.390;2023-05-03T03:56:17;99140.66;;;5.23;100.00
53719;BME280;39616;48.872;9.390;2023-05-03T03:58:48;99139.63;;;5.13;100.00
53719;BME280;39616;48.872;9.390;2023-05-03T04:01:18;99149.59;;;5.12;100.00
53719;BME280;39616;48.872;9.390;2023-05-03T04:03:48;99145.72;;;5.08;100.00
53719;BME280;39616;48.872;9.390;2023-05-03T04:06:18;99147.13;;;5.11;100.00
53719;BME280;39616;48.872;9.390;2023-05-03T04:08:49;99144.53;;;5.16;100.00
53719;BME280;39616;48.872;9.390;2023-05-03T04:11:20;99146.22;;;5.05;100.00
53719;BME280;39616;48.872;9.390;2023-05-03T04:13:50;99150.44;;;5.01;100.00
53719;BME280;39616;48.872;9.390;2023-05-03T04:16:20;99147.75;;;5.01;100.00
53719;BME280;39616;48.872;9.390;2023-05-03T04:18:51;99148.78;;;5.00;100.00
53719;BME280;39616;48.872;9.390;2023-05-03T04:21:21;99153.94;;;5.01;100.00
53719;BME280;39616;48.872;9.390;2023-05-03T04:23:51;99156.72;;;5.06;100.00
53719;BME280;39616;48.872;9.390;2023-05-03T04:26:22;99157.47;;;5.19;100.00
53719;BME280;39616;48.872;9.390;2023-05-03T04:28:53;99163.63;;;5.31;100.00
53719;BME280;39616;48.872;9.390;2023-05-03T04:31:23;99166.75;;;5.40;100.00
53719;BME280;39616;48.872;9.390;2023-05-03T04:33:54;99166.34;;;5.48;100.00
53719;BME280;39616;48.872;9.390;2023-05-03T04:36:25;99170.09;;;5.47;100.00
53719;BME280;39616;48.872;9.390;2023-05-03T04:38:58;99168.00;;;5.49;100.00
53719;BME280;39616;48.872;9.390;2023-05-03T04:41:29;99177.69;;;5.50;100.00
53719;BME280;39616;48.872;9.390;2023-05-03T04:43:59;99167.16;;;5.48;100.00
53719;BME280;39616;48.872;9.390;2023-05-03T04:46:29;99176.53;;;5.46;100.00
53719;BME280;39616;48.872;9.390;2023-05-03T04:49:00;99179.22;;;5.46;100.00
53719;BME280;39616;48.872;9.390;2023-05-03T04:51:31;99179.56;;;5.49;100.00
53719;BME280;39616;48.872;9.390;2023-05-03T04:54:01;99184.22;;;5.54;100.00
53719;BME280;39616;48.872;9.390;2023-05-03T04:56:31;99182.41;;;5.60;100.00
53719;BME280;39616;48.872;9.390;2023-05-03T04:59:04;99178.53;;;5.67;100.00
53719;BME280;39616;48.872;9.390;2023-05-03T05:01:34;99180.47;;;5.72;100.00
53719;BME280;39616;48.872;9.390;2023-05-03T05:04:05;99184.66;;;5.79;100.00
53719;BME280;39616;48.872;9.390;2023-05-03T05:06:36;99184.50;;;5.86;100.00
53719;BME280;39616;48.872;9.390;2023-05-03T05:09:06;99177.97;;;5.99;100.00
53719;BME280;39616;48.872;9.390;2023-05-03T05:11:36;99184.81;;;6.07;100.00
53719;BME280;39616;48.872;9.390;2023-05-03T05:14:07;99180.91;;;6.14;100.00
53719;BME280;39616;48.872;9.390;2023-05-03T05:16:37;99173.47;;;6.21;100.00
53719;BME280;39616;48.872;9.390;2023-05-03T05:19:07;99177.38;;;6.31;100.00
53719;BME280;39616;48.872;9.390;2023-05-03T05:21:38;99178.34;;;6.41;100.00
53719;BME280;39616;48.872;9.390;2023-05-03T05:24:08;99190.81;;;6.47;100.00
53719;BME280;39616;48.872;9.390;2023-05-03T05:26:41;99191.84;;;6.63;100.00
53719;BME280;39616;48.872;9.390;2023-05-03T05:29:12;99195.81;;;6.77;100.00
53719;BME280;39616;48.872;9.390;2023-05-03T05:31:42;99190.53;;;6.88;100.00
53719;BME280;39616;48.872;9.390;2023-05-03T05:34:12;99186.88;;;6.99;100.00
53719;BME280;39616;48.872;9.390;2023-05-03T05:36:43;99175.41;;;7.09;100.00
53719;BME280;39616;48.872;9.390;2023-05-03T05:39:13;99178.03;;;7.25;100.00
53719;BME280;39616;48.872;9.390;2023-05-03T05:41:43;99180.28;;;7.34;100.00
53719;BME280;39616;48.872;9.390;2023-05-03T05:44:14;99188.72;;;7.42;100.00
53719;BME280;39616;48.872;9.390;2023-05-03T05:46:44;99181.03;;;7.56;100.00
53719;BME280;39616;48.872;9.390;2023-05-03T05:49:15;99186.84;;;7.70;100.00
53719;BME280;39616;48.872;9.390;2023-05-03T05:51:45;99190.19;;;7.87;100.00
53719;BME280;39616;48.872;9.390;2023-05-03T05:54:16;99189.44;;;7.92;100.00
53719;BME280;39616;48.872;9.390;2023-05-03T05:56:46;99184.41;;;8.06;100.00
53719;BME280;39616;48.872;9.390;2023-05-03T05:59:16;99183.66;;;8.10;100.00
53719;BME280;39616;48.872;9.390;2023-05-03T06:01:47;99182.06;;;8.14;100.00
53719;BME280;39616;48.872;9.390;2023-05-03T06:04:17;99177.56;;;8.35;100.00
53719;BME280;39616;48.872;9.390;2023-05-03T06:06:47;99183.66;;;8.53;100.00
53719;BME280;39616;48.872;9.390;2023-05-03T06:09:18;99187.25;;;8.68;100.00
53719;BME280;39616;48.872;9.390;2023-05-03T06:11:48;99182.13;;;8.72;100.00
53719;BME280;39616;48.872;9.390;2023-05-03T06:14:19;99182.00;;;9.04;100.00
53719;BME280;39616;48.872;9.390;2023-05-03T06:16:49;99182.31;;;9.18;98.48
53719;BME280;39616;48.872;9.390;2023-05-03T06:19:20;99177.44;;;9.20;97.42
53719;BME280;39616;48.872;9.390;2023-05-03T06:21:50;99180.75;;;9.42;96.52
53719;BME280;39616;48.872;9.390;2023-05-03T06:24:21;99178.03;;;9.42;94.52
53719;BME280;39616;48.872;9.390;2023-05-03T06:26:51;99178.06;;;9.48;93.92
53719;BME280;39616;48.872;9.390;2023-05-03T06:29:22;99178.06;;;9.68;93.02
53719;BME280;39616;48.872;9.390;2023-05-03T06:31:52;99180.28;;;9.76;92.38
53719;BME280;39616;48.872;9.390;2023-05-03T06:34:24;99180.00;;;10.03;90.60
53719;BME280;39616;48.872;9.390;2023-05-03T06:36:54;99185.16;;;10.20;89.38
53719;BME280;39616;48.872;9.390;2023-05-03T06:39:24;99183.25;;;10.36;88.40
53719;BME280;39616;48.872;9.390;2023-05-03T06:41:55;99179.44;;;10.37;86.14
53719;BME280;39616;48.872;9.390;2023-05-03T06:44:25;99174.00;;;10.47;87.76
53719;BME280;39616;48.872;9.390;2023-05-03T06:46:56;99175.81;;;10.77;86.96
53719;BME280;39616;48.872;9.390;2023-05-03T06:49:26;99168.16;;;10.89;84.19
53719;BME280;39616;48.872;9.390;2023-05-03T06:51:56;99173.03;;;10.98;83.40
53719;BME280;39616;48.872;9.390;2023-05-03T06:54:26;99175.13;;;11.11;83.28
53719;BME280;39616;48.872;9.390;2023-05-03T06:56:57;99164.41;;;11.35;82.42
53719;BME280;39616;48.872;9.390;2023-05-03T06:59:27;99166.47;;;11.53;80.99
53719;BME280;39616;48.872;9.390;2023-05-03T07:01:58;99165.47;;;11.39;80.30
53719;BME280;39616;48.872;9.390;2023-05-03T07:04:28;99166.09;;;11.65;79.36
53719;BME280;39616;48.872;9.390;2023-05-03T07:06:59;99164.75;;;11.63;78.69
53719;BME280;39616;48.872;9.390;2023-05-03T07:09:30;99159.81;;;12.09;77.79
53719;BME280;39616;48.872;9.390;2023-05-03T07:12:00;99160.00;;;12.18;77.11
53719;BME280;39616;48.872;9.390;2023-05-03T07:14:32;99159.22;;;12.41;76.12
53719;BME280;39616;48.872;9.390;2023-05-03T07:17:02;99152.53;;;12.81;75.49
53719;BME280;39616;48.872;9.390;2023-05-03T07:19:33;99150.25;;;12.89;74.66
53719;BME280;39616;48.872;9.390;2023-05-03T07:22:03;99143.16;;;13.12;73.90
53719;BME280;39616;48.872;9.390;2023-05-03T07:24:33;99150.25;;;13.32;72.28
53719;BME280;39616;48.872;9.390;2023-05-03T07:27:03;99137.38;;;13.37;72.00
53719;BME280;39616;48.872;9.390;2023-05-03T07:29:34;99130.94;;;13.47;71.39
53719;BME280;39616;48.872;9.390;2023-05-03T07:32:04;99137.50;;;13.46;72.83
53719;BME280;39616;48.872;9.390;2023-05-03T07:34:35;99130.28;;;13.88;70.61
53719;BME280;39616;48.872;9.390;2023-05-03T07:37:05;99133.72;;;14.26;68.87
53719;BME280;39616;48.872;9.390;2023-05-03T07:39:35;99131.25;;;14.57;67.25
53719;BME280;39616;48.872;9.390;2023-05-03T07:42:06;99127.03;;;14.51;68.39
53719;BME280;39616;48.872;9.390;2023-05-03T07:44:36;99126.72;;;14.66;66.74
53719;BME280;39616;48.872;9.390;2023-05-03T07:47:07;99122.56;;;14.83;66.68
53719;BME280;39616;48.872;9.390;2023-05-03T07:49:37;99129.75;;;14.79;66.63
53719;BME280;39616;48.872;9.390;2023-05-03T07:52:08;99130.06;;;14.77;66.57
53719;BME280;39616;48.872;9.390;2023-05-03T07:54:38;99127.81;;;14.93;65.94
53719;BME280;39616;48.872;9.390;2023-05-03T07:57:08;99115.72;;;15.58;64.14
53719;BME280;39616;48.872;9.390;2023-05-03T07:59:39;99125.13;;;15.65;63.66
53719;BME280;39616;48.872;9.390;2023-05-03T08:02:09;99127.88;;;15.52;63.84
53719;BME280;39616;48.872;9.390;2023-05-03T08:04:39;99131.81;;;15.82;63.47
53719;BME280;39616;48.872;9.390;2023-05-03T08:07:10;99121.16;;;16.34;61.73
53719;BME280;39616;48.872;9.390;2023-05-03T08:09:40;99129.06;;;16.04;62.43
53719;BME280;39616;48.872;9.390;2023-05-03T08:12:11;99128.03;;;15.91;62.47
53719;BME280;39616;48.872;9.390;2023-05-03T08:14:41;99117.59;;;16.25;61.95
53719;BME280;39616;48.872;9.390;2023-05-03T08:17:11;99114.94;;;16.11;61.68
53719;BME280;39616;48.872;9.390;2023-05-03T08:19:42;99118.16;;;15.82;62.54
53719;BME280;39616;48.872;9.390;2023-05-03T08:22:13;99112.66;;;15.59;62.55
53719;BME280;39616;48.872;9.390;2023-05-03T08:24:44;99127.53;;;14.81;65.22
53719;BME280;39616;48.872;9.390;2023-05-03T08:27:14;99126.94;;;15.56;64.21
53719;BME280;39616;48.872;9.390;2023-05-03T08:29:45;99122.72;;;15.50;63.81
53719;BME280;39616;48.872;9.390;2023-05-03T08:32:15;99124.50;;;15.91;65.18
53719;BME280;39616;48.872;9.390;2023-05-03T08:34:46;99124.03;;;15.75;63.12
53719;BME280;39616;48.872;9.390;2023-05-03T08:37:16;99126.44;;;16.22;62.56
53719;BME280;39616;48.872;9.390;2023-05-03T08:39:46;99132.56;;;16.98;59.22
53719;BME280;39616;48.872;9.390;2023-05-03T08:42:17;99131.53;;;16.46;60.58
53719;BME280;39616;48.872;9.390;2023-05-03T08:44:47;99124.59;;;16.39;61.66
53719;BME280;39616;48.872;9.390;2023-05-03T08:47:18;99127.81;;;16.41;61.58
53719;BME280;39616;48.872;9.390;2023-05-03T08:49:49;99128.53;;;16.25;63.12
53719;BME280;39616;48.872;9.390;2023-05-03T08:52:20;99127.06;;;16.50;62.11
53719;BME280;39616;48.872;9.390;2023-05-03T08:54:52;99129.47;;;16.51;61.12
53719;BME280;39616;48.872;9.390;2023-05-03T08:57:23;99128.97;;;16.89;60.96
53719;BME280;39616;48.872;9.390;2023-05-03T08:59:54;99134.22;;;16.68;61.27
53719;BME280;39616;48.872;9.390;2023-05-03T09:02:29;99130.50;;;16.33;60.58
53719;BME280;39616;48.872;9.390;2023-05-03T09:08:09;99125.34;;;17.98;58.29
53719;BME280;39616;48.872;9.390;2023-05-03T09:10:41;99132.63;;;17.76;56.98
53719;BME280;39616;48.872;9.390;2023-05-03T09:13:11;99136.72;;;18.34;55.79
53719;BME280;39616;48.872;9.390;2023-05-03T09:15:42;99131.69;;;18.83;54.70
53719;BME280;39616;48.872;9.390;2023-05-03T09:18:19;99130.44;;;18.72;54.58
53719;BME280;39616;48.872;9.390;2023-05-03T09:20:50;99133.22;;;18.55;54.53
53719;BME280;39616;48.872;9.390;2023-05-03T09:25:58;99140.75;;;18.67;54.86
53719;BME280;39616;48.872;9.390;2023-05-03T09:28:29;99137.69;;;18.30;54.42
53719;BME280;39616;48.872;9.390;2023-05-03T09:31:09;99125.22;;;18.41;55.42
53719;BME280;39616;48.872;9.390;2023-05-03T09:33:39;99126.69;;;19.06;54.63
53719;BME280;39616;48.872;9.390;2023-05-03T09:36:10;99128.06;;;18.53;54.38
53719;BME280;39616;48.872;9.390;2023-05-03T09:38:41;99126.03;;;18.33;55.01
53719;BME280;39616;48.872;9.390;2023-05-03T09:41:12;99119.66;;;18.12;56.77
53719;BME280;39616;48.872;9.390;2023-05-03T09:43:48;99120.19;;;18.43;55.51
53719;BME280;39616;48.872;9.390;2023-05-03T09:46:19;99126.50;;;19.12;53.30
53719;BME280;39616;48.872;9.390;2023-05-03T09:48:49;99118.16;;;19.71;52.27
53719;BME280;39616;48.872;9.390;2023-05-03T09:51:22;99117.94;;;19.76;50.79
53719;BME280;39616;48.872;9.390;2023-05-03T09:53:55;99111.50;;;20.05;50.29
53719;BME280;39616;48.872;9.390;2023-05-03T09:56:25;99115.97;;;19.76;51.11
53719;BME280;39616;48.872;9.390;2023-05-03T09:58:56;99114.97;;;20.14;50.13
53719;BME280;39616;48.872;9.390;2023-05-03T10:01:28;99115.78;;;20.15;49.78
53719;BME280;39616;48.872;9.390;2023-05-03T10:03:59;99112.50;;;20.58;49.65
53719;BME280;39616;48.872;9.390;2023-05-03T10:06:37;99119.94;;;20.33;49.49
53719;BME280;39616;48.872;9.390;2023-05-03T10:09:35;99110.69;;;20.05;50.09
53719;BME280;39616;48.872;9.390;2023-05-03T10:12:10;99111.06;;;19.61;50.75
53719;BME280;39616;48.872;9.390;2023-05-03T10:14:44;99108.50;;;18.64;52.88
53719;BME280;39616;48.872;9.390;2023-05-03T10:17:15;99099.28;;;19.82;50.21
53719;BME280;39616;48.872;9.390;2023-05-03T10:19:59;99097.22;;;20.48;49.35
53719;BME280;39616;48.872;9.390;2023-05-03T10:25:35;99098.81;;;20.37;49.75
53719;BME280;39616;48.872;9.390;2023-05-03T10:28:08;99099.88;;;19.24;51.45
53719;BME280;39616;48.872;9.390;2023-05-03T10:30:39;99105.84;;;19.47;50.25
53719;BME280;39616;48.872;9.390;2023-05-03T10:35:50;99105.19;;;17.94;53.05
53719;BME280;39616;48.872;9.390;2023-05-03T10:38:25;99102.91;;;17.52;54.33
53719;BME280;39616;48.872;9.390;2023-05-03T10:40:55;99097.44;;;17.09;56.31
53719;BME280;39616;48.872;9.390;2023-05-03T10:48:34;99076.28;;;17.88;53.67
53719;BME280;39616;48.872;9.390;2023-05-03T10:51:30;99082.56;;;18.44;53.03
53719;BME280;39616;48.872;9.390;2023-05-03T10:54:02;99092.50;;;18.19;53.63
53719;BME280;39616;48.872;9.390;2023-05-03T10:56:46;99099.69;;;17.94;54.28
53719;BME280;39616;48.872;9.390;2023-05-03T10:59:17;99079.81;;;19.03;52.62
53719;BME280;39616;48.872;9.390;2023-05-03T11:01:49;99077.25;;;18.77;52.06
53719;BME280;39616;48.872;9.390;2023-05-03T11:04:33;99079.03;;;19.44;50.11
53719;BME280;39616;48.872;9.390;2023-05-03T11:07:05;99074.81;;;19.05;50.20
53719;BME280;39616;48.872;9.390;2023-05-03T11:09:36;99079.72;;;18.61;50.79
53719;BME280;39616;48.872;9.390;2023-05-03T11:12:06;99072.38;;;19.45;49.70
53719;BME280;39616;48.872;9.390;2023-05-03T11:14:37;99074.81;;;18.37;50.87
53719;BME280;39616;48.872;9.390;2023-05-03T11:17:09;99067.31;;;17.35;53.43
53719;BME280;39616;48.872;9.390;2023-05-03T11:19:41;99061.00;;;17.43;51.42
53719;BME280;39616;48.872;9.390;2023-05-03T11:22:12;99070.00;;;16.92;53.06
53719;BME280;39616;48.872;9.390;2023-05-03T11:24:43;99061.31;;;16.98;52.30
53719;BME280;39616;48.872;9.390;2023-05-03T11:27:13;99046.59;;;17.63;51.81
53719;BME280;39616;48.872;9.390;2023-05-03T11:29:47;99053.00;;;18.02;51.60
53719;BME280;39616;48.872;9.390;2023-05-03T11:32:17;99045.78;;;17.89;51.33
53719;BME280;39616;48.872;9.390;2023-05-03T11:34:48;99044.69;;;18.88;50.98
53719;BME280;39616;48.872;9.390;2023-05-03T11:37:18;99044.75;;;19.42;48.07
53719;BME280;39616;48.872;9.390;2023-05-03T11:39:49;99044.72;;;19.29;48.54
53719;BME280;39616;48.872;9.390;2023-05-03T11:42:19;99043.84;;;19.17;48.34
53719;BME280;39616;48.872;9.390;2023-05-03T11:44:51;99043.50;;;18.97;49.31
53719;BME280;39616;48.872;9.390;2023-05-03T11:47:22;99041.88;;;19.38;48.48
53719;BME280;39616;48.872;9.390;2023-05-03T11:49:53;99040.50;;;19.11;46.52
53719;BME280;39616;48.872;9.390;2023-05-03T11:52:26;99037.22;;;19.72;47.22
53719;BME280;39616;48.872;9.390;2023-05-03T11:54:56;99044.22;;;19.48;47.14
53719;BME280;39616;48.872;9.390;2023-05-03T11:57:27;99045.06;;;18.77;48.36
53719;BME280;39616;48.872;9.390;2023-05-03T12:00:17;99035.28;;;18.38;48.89
53719;BME280;39616;48.872;9.390;2023-05-03T12:02:48;99032.19;;;18.01;49.84
53719;BME280;39616;48.872;9.390;2023-05-03T12:05:20;99037.75;;;17.75;50.82
53719;BME280;39616;48.872;9.390;2023-05-03T12:07:51;99026.59;;;17.63;50.07
53719;BME280;39616;48.872;9.390;2023-05-03T12:10:22;99027.56;;;17.93;50.17
53719;BME280;39616;48.872;9.390;2023-05-03T12:13:00;99016.75;;;18.86;48.09
53719;BME280;39616;48.872;9.390;2023-05-03T12:15:37;99009.38;;;19.52;45.84
53719;BME280;39616;48.872;9.390;2023-05-03T12:18:11;99011.97;;;19.70;45.65
53719;BME280;39616;48.872;9.390;2023-05-03T12:20:41;99004.38;;;20.00;45.29
53719;BME280;39616;48.872;9.390;2023-05-03T12:23:11;99005.16;;;20.13;43.98
53719;BME280;39616;48.872;9.390;2023-05-03T12:25:42;99001.25;;;20.01;44.79
53719;BME280;39616;48.872;9.390;2023-05-03T12:28:12;99001.31;;;19.14;45.41
53719;BME280;39616;48.872;9.390;2023-05-03T12:30:43;99004.94;;;18.55;47.01
53719;BME280;39616;48.872;9.390;2023-05-03T12:33:13;99013.19;;;18.26;47.31
53719;BME280;39616;48.872;9.390;2023-05-03T12:35:48;99015.13;;;18.25;47.82
53719;BME280;39616;48.872;9.390;2023-05-03T12:38:18;99001.56;;;17.82;48.28
53719;BME280;39616;48.872;9.390;2023-05-03T12:40:48;99002.25;;;17.79;48.33
53719;BME280;39616;48.872;9.390;2023-05-03T12:43:19;99002.25;;;17.79;48.41
53719;BME280;39616;48.872;9.390;2023-05-03T12:45:49;98999.97;;;17.90;47.54
53719;BME280;39616;48.872;9.390;2023-05-03T12:48:19;98997.13;;;18.45;47.74
53719;BME280;39616;48.872;9.390;2023-05-03T12:50:53;98984.81;;;19.14;45.06
53719;BME280;39616;48.872;9.390;2023-05-03T12:53:24;98986.78;;;19.47;43.54
53719;BME280;39616;48.872;9.390;2023-05-03T12:55:55;98979.91;;;19.74;42.75
53719;BME280;39616;48.872;9.390;2023-05-03T12:58:25;98986.59;;;20.34;44.67
53719;BME280;39616;48.872;9.390;2023-05-03T13:00:56;98979.59;;;20.61;41.89
53719;BME280;39616;48.872;9.390;2023-05-03T13:03:27;98980.75;;;20.11;43.27
53719;BME280;39616;48.872;9.390;2023-05-03T13:05:57;98978.44;;;20.01;43.31
53719;BME280;39616;48.872;9.390;2023-05-03T13:08:28;98972.81;;;20.34;42.70
53719;BME280;39616;48.872;9.390;2023-05-03T13:10:58;98975.81;;;20.17;42.73
53719;BME280;39616;48.872;9.390;2023-05-03T13:13:28;98972.25;;;20.04;42.47
53719;BME280;39616;48.872;9.390;2023-05-03T13:15:59;98967.69;;;18.75;44.79
53719;BME280;39616;48.872;9.390;2023-05-03T13:18:29;98958.66;;;19.29;44.74
53719;BME280;39616;48.872;9.390;2023-05-03T13:21:01;98965.25;;;19.94;43.93
53719;BME280;39616;48.872;9.390;2023-05-03T13:23:33;98957.25;;;19.56;44.08
53719;BME280;39616;48.872;9.390;2023-05-03T13:26:03;98966.78;;;19.25;44.19
53719;BME280;39616;48.872;9.390;2023-05-03T13:28:33;98958.06;;;19.23;42.67
53719;BME280;39616;48.872;9.390;2023-05-03T13:31:04;98957.78;;;18.83;42.96
53719;BME280;39616;48.872;9.390;2023-05-03T13:33:35;98952.78;;;18.55;41.91
53719;BME280;39616;48.872;9.390;2023-05-03T13:36:07;98949.47;;;19.25;42.20
53719;BME280;39616;48.872;9.390;2023-05-03T13:38:37;98941.19;;;19.58;42.27
53719;BME280;39616;48.872;9.390;2023-05-03T13:41:10;98942.09;;;19.50;42.97
53719;BME280;39616;48.872;9.390;2023-05-03T13:43:41;98941.69;;;19.27;42.56